Time;durP1;ratioP1;P1;durP2;ratioP2;P2;SDS_P1;SDS_P2;PMS_P1;PMS_P2;Temp;Humidity;BMP_temperature;BMP_pressure;BME280_temperature;BME280_humidity;BME280_pressure;Samples;Min_cycle;Max_cycle;Signal;HPM_P1;HPM_P2
2023/01/12 00:01:20;;;;;;;11.25;6.97;;;;;;;-142.25;100.00;58004.16;5038577;28;20128;-70
2023/01/12 00:03:45;;;;;;;10.43;7.10;;;;;;;-142.25;100.00;58004.16;5040882;28;20042;-71
2023/01/12 00:06:11;;;;;;;10.13;6.80;;;;;;;-142.25;100.00;58004.16;5040180;28;20050;-71
2023/01/12 00:08:37;;;;;;;13.27;7.87;;;;;;;-142.25;100.00;58004.16;5041832;28;20451;-71
2023/01/12 00:11:03;;;;;;;10.67;7.23;;;;;;;-142.25;100.00;58004.16;5042145;28;20041;-70
2023/01/12 00:13:29;;;;;;;11.33;7.70;;;;;;;-142.25;100.00;58004.16;5037526;28;20048;-71
2023/01/12 00:18:41;;;;;;;;;;;;;;;-142.25;100.00;58004.16;5041765;28;20589;-71
2023/01/12 00:21:07;;;;;;;13.57;10.07;;;;;;;-142.25;100.00;58004.16;5054462;28;19920;-72
2023/01/12 00:23:33;;;;;;;14.37;9.90;;;;;;;-142.25;100.00;58004.16;5051106;28;20045;-72
2023/01/12 00:25:59;;;;;;;13.10;9.30;;;;;;;-142.25;100.00;58004.16;5036399;28;20091;-71
2023/01/12 00:28:24;;;;;;;9.77;7.63;;;;;;;-142.25;100.00;58004.16;5039032;28;20436;-71
2023/01/12 00:30:50;;;;;;;10.23;7.10;;;;;;;-142.25;100.00;58004.16;5036930;28;20048;-72
2023/01/12 00:33:16;;;;;;;18.17;7.33;;;;;;;-142.25;100.00;58004.16;5038398;28;20048;-70
2023/01/12 00:35:41;;;;;;;11.80;7.03;;;;;;;-142.25;100.00;58004.16;5038742;28;20036;-70
2023/01/12 00:38:07;;;;;;;10.73;7.97;;;;;;;-142.25;100.00;58004.16;5039950;28;20150;-71
2023/01/12 00:40:35;;;;;;;15.70;9.47;;;;;;;-142.25;100.00;58004.16;5038827;28;20107;-72
2023/01/12 00:45:49;;;;;;;6.43;4.47;;;;;;;-142.25;100.00;58004.16;5036789;28;20036;-70
2023/01/12 00:48:15;;;;;;;3.30;2.40;;;;;;;-142.25;100.00;58004.16;5036776;28;20369;-70
2023/01/12 00:50:40;;;;;;;1.20;1.10;;;;;;;-142.25;100.00;58004.16;5033488;28;20468;-70
2023/01/12 00:53:06;;;;;;;1.30;1.23;;;;;;;-142.25;100.00;58004.16;5041616;28;20048;-71
2023/01/12 00:55:32;;;;;;;1.43;0.93;;;;;;;-142.25;100.00;58004.16;5035400;28;20475;-71
2023/01/12 00:57:57;;;;;;;1.23;1.00;;;;;;;-142.25;100.00;58004.16;5030313;28;20331;-69
2023/01/12 01:00:23;;;;;;;1.27;1.05;;;;;;;-142.25;100.00;58004.16;5038069;28;20088;-71
2023/01/12 01:02:49;;;;;;;1.38;1.00;;;;;;;-142.25;100.00;58004.16;5036630;28;20037;-70
2023/01/12 01:05:16;;;;;;;1.83;1.10;;;;;;;-142.25;100.00;58004.16;5034124;28;20044;-71
2023/01/12 01:07:42;;;;;;;2.17;1.30;;;;;;;-142.25;100.00;58004.16;5036523;28;20055;-71
2023/01/12 01:10:09;;;;;;;1.90;1.40;;;;;;;-142.25;100.00;58004.16;5037060;28;20068;-71
2023/01/12 01:12:35;;;;;;;1.95;1.70;;;;;;;-142.25;100.00;58004.16;5037044;28;20037;-70
2023/01/12 01:15:01;;;;;;;1.23;1.13;;;;;;;-142.25;100.00;58004.16;5036777;28;20038;-71
2023/01/12 01:17:27;;;;;;;1.60;0.90;;;;;;;-142.25;100.00;58004.16;5033359;28;20085;-71
2023/01/12 01:19:53;;;;;;;1.50;1.40;;;;;;;-142.25;100.00;58004.16;5038763;28;20040;-71
2023/01/12 01:22:19;;;;;;;1.05;0.93;;;;;;;-142.25;100.00;58004.16;5037882;28;20115;-71
2023/01/12 01:24:46;;;;;;;1.73;1.17;;;;;;;-142.25;100.00;58004.16;5036357;28;20043;-70
2023/01/12 01:27:12;;;;;;;2.45;1.70;;;;;;;-142.25;100.00;58004.16;5038157;28;20677;-72
2023/01/12 01:29:37;;;;;;;1.33;1.23;;;;;;;-142.25;100.00;58004.16;5035830;28;20060;-71
2023/01/12 01:32:04;;;;;;;1.48;1.00;;;;;;;-142.25;100.00;58004.16;5037819;28;20053;-70
2023/01/12 01:34:29;;;;;;;1.20;1.20;;;;;;;-142.25;100.00;58004.16;5034682;28;20041;-70
2023/01/12 01:36:55;;;;;;;1.75;1.00;;;;;;;-142.25;100.00;58004.16;5035909;28;20523;-72
2023/01/12 01:39:21;;;;;;;2.70;1.23;;;;;;;-142.25;100.00;58004.16;5034928;28;20045;-70
2023/01/12 01:41:47;;;;;;;3.40;1.35;;;;;;;-142.25;100.00;58004.16;5038095;28;20041;-71
2023/01/12 01:44:27;;;;;;;1.42;1.33;;;;;;;-142.25;100.00;58004.16;5033475;28;20045;-71
2023/01/12 01:47:05;;;;;;;1.13;1.00;;;;;;;-142.25;100.00;58004.16;5032934;28;20478;-71
2023/01/12 01:49:40;;;;;;;1.10;1.10;;;;;;;-142.25;100.00;58004.16;5039833;28;20669;-70
2023/01/12 01:52:13;;;;;;;1.55;1.20;;;;;;;-142.25;100.00;58004.16;5034898;28;20045;-71
2023/01/12 01:54:54;;;;;;;1.17;1.17;;;;;;;-142.25;100.00;58004.16;5037043;28;20317;-71
2023/01/12 01:57:24;;;;;;;1.35;1.02;;;;;;;-142.25;100.00;58004.16;5035860;28;20041;-71
2023/01/12 01:59:54;;;;;;;1.17;1.10;;;;;;;-142.25;100.00;58004.16;5043463;28;20137;-71
2023/01/12 02:02:23;;;;;;;1.20;1.10;;;;;;;-142.25;100.00;58004.16;5036472;28;20111;-70
2023/01/12 02:04:48;;;;;;;1.17;1.08;;;;;;;-142.25;100.00;58004.16;5033784;28;20068;-70
2023/01/12 02:07:14;;;;;;;2.80;1.20;;;;;;;-142.25;100.00;58004.16;5035000;28;20103;-71
2023/01/12 02:09:40;;;;;;;1.60;1.25;;;;;;;-142.25;100.00;58004.16;5035729;28;20049;-71
2023/01/12 02:17:56;;;;;;;3.40;1.10;;;;;;;-142.25;100.00;58004.16;5034273;28;20061;-71
2023/01/12 02:20:50;;;;;;;1.42;1.30;;;;;;;-142.25;100.00;58004.16;5036434;28;20033;-71
2023/01/12 02:23:22;;;;;;;7.22;1.52;;;;;;;-142.25;100.00;58004.16;5033133;28;20135;-70
2023/01/12 02:26:12;;;;;;;1.30;1.20;;;;;;;-142.25;100.00;58004.16;5034008;28;20052;-69
2023/01/12 02:29:15;;;;;;;1.33;1.27;;;;;;;-142.25;100.00;58004.16;5036660;28;20052;-69
2023/01/12 02:31:55;;;;;;;1.08;1.02;;;;;;;-142.25;100.00;58004.16;5034305;28;20223;-71
2023/01/12 02:34:46;;;;;;;1.33;1.23;;;;;;;-142.25;100.00;58004.16;5033774;28;20041;-70
2023/01/12 02:37:17;;;;;;;2.13;1.48;;;;;;;-142.25;100.00;58004.16;5032773;28;20052;-72
2023/01/12 02:39:49;;;;;;;1.70;1.40;;;;;;;-142.25;100.00;58004.16;5033835;28;20048;-71
2023/01/12 02:42:40;;;;;;;2.50;1.23;;;;;;;-142.25;100.00;58004.16;5036359;28;20045;-72
2023/01/12 02:45:44;;;;;;;2.13;1.15;;;;;;;-142.25;100.00;58004.16;5036703;28;20067;-70
2023/01/12 02:48:52;;;;;;;1.63;1.30;;;;;;;-142.25;100.00;58004.16;5036664;28;20049;-71
2023/01/12 02:51:31;;;;;;;2.63;1.20;;;;;;;-142.25;100.00;58004.16;5041731;28;20044;-72
2023/01/12 02:54:00;;;;;;;1.60;1.50;;;;;;;-142.25;100.00;58004.16;5035125;28;20060;-73
2023/01/12 02:56:33;;;;;;;1.57;0.87;;;;;;;-142.25;100.00;58004.16;5036098;28;20584;-71
2023/01/12 02:59:04;;;;;;;1.27;1.10;;;;;;;-142.25;100.00;58004.16;5034878;28;20052;-71
2023/01/12 03:01:32;;;;;;;1.30;1.20;;;;;;;-142.25;100.00;58004.16;5029449;28;20524;-71
2023/01/12 03:04:02;;;;;;;2.00;1.27;;;;;;;-142.25;100.00;58004.16;5026862;28;20041;-71
2023/01/12 03:06:57;;;;;;;2.63;1.60;;;;;;;-142.25;100.00;58004.16;5030440;28;20038;-72
2023/01/12 03:09:29;;;;;;;3.13;1.07;;;;;;;-142.25;100.00;58004.16;5034763;28;20068;-73
2023/01/12 03:12:02;;;;;;;2.70;1.20;;;;;;;-142.25;100.00;58004.16;5023446;28;20483;-74
2023/01/12 03:14:30;;;;;;;3.30;1.50;;;;;;;-142.25;100.00;58004.16;5033946;28;20045;-65
2023/01/12 03:16:56;;;;;;;1.80;1.30;;;;;;;-142.25;100.00;58004.16;5032085;28;20487;-73
2023/01/12 03:19:29;;;;;;;1.83;1.33;;;;;;;-142.25;100.00;58004.16;5033937;28;20057;-71
2023/01/12 03:21:59;;;;;;;2.22;1.17;;;;;;;-142.25;100.00;58004.16;5032200;28;20052;-72
2023/01/12 03:24:29;;;;;;;3.47;1.67;;;;;;;-142.25;100.00;58004.16;5038397;28;20037;-70
2023/01/12 03:27:00;;;;;;;6.37;1.77;;;;;;;-142.25;100.00;58004.16;5040277;28;20447;-72
2023/01/12 03:29:45;;;;;;;4.77;2.27;;;;;;;-142.25;100.00;58004.16;5040533;28;20036;-72
2023/01/12 03:32:11;;;;;;;5.28;1.63;;;;;;;-142.25;100.00;58004.16;5037466;28;20037;-72
2023/01/12 03:34:38;;;;;;;6.28;1.48;;;;;;;-142.25;100.00;58004.16;5038413;28;20036;-72
2023/01/12 03:37:30;;;;;;;6.10;1.53;;;;;;;-142.25;100.00;58004.16;5047164;28;20033;-71
2023/01/12 03:40:17;;;;;;;3.23;1.63;;;;;;;-142.25;100.00;58004.16;5044279;28;20071;-72
2023/01/12 03:43:08;;;;;;;2.50;1.10;;;;;;;-142.25;100.00;58004.16;5040230;28;20059;-72
2023/01/12 03:45:38;;;;;;;1.87;1.70;;;;;;;-142.25;100.00;58004.16;5038753;28;20049;-74
2023/01/12 03:48:24;;;;;;;2.70;1.47;;;;;;;-142.25;100.00;58004.16;5037704;28;20037;-72
2023/01/12 03:51:02;;;;;;;2.95;1.38;;;;;;;-142.25;100.00;58004.16;5039058;28;20104;-72
2023/01/12 03:53:30;;;;;;;1.80;1.40;;;;;;;-142.25;100.00;58004.16;5037696;28;20539;-72
2023/01/12 03:56:02;;;;;;;2.03;1.48;;;;;;;-142.25;100.00;58004.16;5038519;28;20067;-72
2023/01/12 03:58:30;;;;;;;3.28;1.60;;;;;;;-142.25;100.00;58004.16;5038274;28;20416;-71
2023/01/12 04:00:55;;;;;;;3.50;1.90;;;;;;;-142.25;100.00;58004.16;5038134;28;20046;-71
2023/01/12 04:03:23;;;;;;;1.30;1.13;;;;;;;-142.25;100.00;58004.16;5038017;28;20049;-71
2023/01/12 04:05:48;;;;;;;1.48;1.30;;;;;;;-142.25;100.00;58004.16;5037520;28;20038;-71
2023/01/12 04:08:15;;;;;;;3.17;1.47;;;;;;;-142.25;100.00;58004.16;5042287;28;20514;-72
2023/01/12 04:10:41;;;;;;;2.92;1.65;;;;;;;-142.25;100.00;58004.16;5048195;28;20049;-70
2023/01/12 04:13:06;;;;;;;3.00;1.35;;;;;;;-142.25;100.00;58004.16;5039174;28;20487;-71
2023/01/12 04:15:36;;;;;;;1.95;1.33;;;;;;;-142.25;100.00;58004.16;5041338;28;20399;-70
2023/01/12 04:18:04;;;;;;;3.43;1.33;;;;;;;-142.25;100.00;58004.16;5040020;28;20080;-72
2023/01/12 04:20:30;;;;;;;4.53;1.57;;;;;;;-142.25;100.00;58004.16;5036883;28;20148;-66
2023/01/12 04:22:55;;;;;;;2.27;1.20;;;;;;;-142.25;100.00;58004.16;5036451;28;20114;-72
2023/01/12 04:25:22;;;;;;;2.40;1.40;;;;;;;-142.25;100.00;58004.16;5038328;28;20056;-72
2023/01/12 04:27:50;;;;;;;1.30;1.20;;;;;;;-142.25;100.00;58004.16;5036818;28;20564;-72
2023/01/12 04:30:17;;;;;;;2.83;1.53;;;;;;;-142.25;100.00;58004.16;5033264;28;20045;-72
2023/01/12 04:32:44;;;;;;;2.20;1.70;;;;;;;-142.25;100.00;58004.16;5034526;28;20028;-72
2023/01/12 04:35:11;;;;;;;1.93;1.73;;;;;;;-142.25;100.00;58004.16;5034197;28;20116;-72
2023/01/12 04:37:37;;;;;;;3.27;1.50;;;;;;;-142.25;100.00;58004.16;5033115;28;20072;-73
2023/01/12 04:40:05;;;;;;;2.20;1.10;;;;;;;-142.25;100.00;58004.16;5034732;28;20713;-72
2023/01/12 04:45:15;;;;;;;5.03;1.60;;;;;;;-142.25;100.00;58004.16;5036187;28;20137;-72
2023/01/12 04:47:41;;;;;;;1.93;1.43;;;;;;;-142.25;100.00;58004.16;5036651;28;20118;-72
2023/01/12 04:50:07;;;;;;;3.13;1.17;;;;;;;-142.25;100.00;58004.16;5037157;28;20052;-72
2023/01/12 04:52:34;;;;;;;3.00;1.40;;;;;;;-142.25;100.00;58004.16;5036020;28;20574;-72
2023/01/12 04:55:06;;;;;;;1.50;1.30;;;;;;;-142.25;100.00;58004.16;5038062;28;20127;-73
2023/01/12 04:57:31;;;;;;;2.83;1.23;;;;;;;-142.25;100.00;58004.16;5037348;28;20054;-72
2023/01/12 04:59:57;;;;;;;7.10;1.27;;;;;;;-142.25;100.00;58004.16;5039869;28;20453;-70
2023/01/12 05:02:23;;;;;;;3.07;1.10;;;;;;;-142.25;100.00;58004.16;5035791;28;20159;-71
2023/01/12 05:04:49;;;;;;;4.10;0.90;;;;;;;-142.25;100.00;58004.16;5036910;28;20049;-71
2023/01/12 05:07:15;;;;;;;4.60;1.33;;;;;;;-142.25;100.00;58004.16;5036136;28;20107;-71
2023/01/12 05:12:26;;;;;;;4.80;1.80;;;;;;;-142.25;100.00;58004.16;5036815;28;20159;-72
2023/01/12 05:14:52;;;;;;;1.90;1.40;;;;;;;-142.25;100.00;58004.16;5036908;28;20049;-72
2023/01/12 05:17:18;;;;;;;5.00;1.20;;;;;;;-142.25;100.00;58004.16;5036154;28;20069;-72
2023/01/12 05:19:44;;;;;;;4.77;1.40;;;;;;;-142.25;100.00;58004.16;5036868;28;20569;-72
2023/01/12 05:22:09;;;;;;;4.07;1.20;;;;;;;-142.25;100.00;58004.16;5037067;28;20045;-71
2023/01/12 05:24:35;;;;;;;3.70;1.20;;;;;;;-142.25;100.00;58004.16;5034692;28;20559;-72
2023/01/12 05:27:01;;;;;;;2.50;1.13;;;;;;;-142.25;100.00;58004.16;5035751;28;20054;-72
2023/01/12 05:29:27;;;;;;;2.23;1.40;;;;;;;-142.25;100.00;58004.16;5036450;28;20447;-73
2023/01/12 05:31:52;;;;;;;3.73;1.10;;;;;;;-142.25;100.00;58004.16;5035788;28;20037;-72
2023/01/12 05:34:19;;;;;;;2.50;1.30;;;;;;;-142.25;100.00;58004.16;5035322;28;20412;-72
2023/01/12 05:36:47;;;;;;;2.17;1.30;;;;;;;-142.25;100.00;58004.16;5036834;28;20068;-72
2023/01/12 05:39:13;;;;;;;4.27;1.07;;;;;;;-142.25;100.00;58004.16;5042251;28;20093;-72
2023/01/12 05:43:48;;;;;;;2.73;1.23;;;;;;;-142.25;100.00;58004.16;5038487;28;20036;-72
2023/01/12 05:44:24;;;;;;;4.17;1.53;;;;;;;-142.25;100.00;58004.16;5034880;28;20046;-72
2023/01/12 05:46:50;;;;;;;2.53;1.30;;;;;;;-142.25;100.00;58004.16;5035039;28;20041;-73
2023/01/12 05:49:15;;;;;;;2.70;1.40;;;;;;;-142.25;100.00;58004.16;5043386;28;20064;-71
2023/01/12 05:51:41;;;;;;;4.87;1.10;;;;;;;-142.25;100.00;58004.16;5043496;28;20419;-73
2023/01/12 05:54:07;;;;;;;3.30;1.20;;;;;;;-142.25;100.00;58004.16;5036061;28;20045;-70
2023/01/12 05:56:33;;;;;;;2.97;1.60;;;;;;;-142.25;100.00;58004.16;5044154;28;20090;-73
2023/01/12 05:59:00;;;;;;;7.17;1.40;;;;;;;-142.25;100.00;58004.16;5041076;28;20536;-72
2023/01/12 06:01:28;;;;;;;3.63;1.50;;;;;;;-142.25;100.00;58004.16;5040193;28;20041;-73
2023/01/12 06:03:55;;;;;;;1.50;1.37;;;;;;;-142.25;100.00;58004.16;5038426;28;20040;-64
2023/01/12 06:06:22;;;;;;;2.20;1.70;;;;;;;-142.25;100.00;58004.16;5036574;28;20502;-63
2023/01/12 06:08:48;;;;;;;3.07;1.93;;;;;;;-142.25;100.00;58004.16;5032608;28;20048;-65
2023/01/12 06:14:02;;;;;;;2.17;1.30;;;;;;;-142.25;100.00;58004.16;5037540;28;20069;-66
2023/01/12 06:16:28;;;;;;;1.80;1.07;;;;;;;-142.25;100.00;58004.16;5037804;28;20041;-70
2023/01/12 06:18:54;;;;;;;6.63;1.50;;;;;;;-142.25;100.00;58004.16;5035164;28;20065;-70
2023/01/12 06:21:20;;;;;;;4.33;1.17;;;;;;;-142.25;100.00;58004.16;5037094;28;20072;-72
2023/01/12 06:23:45;;;;;;;2.00;0.97;;;;;;;-142.25;100.00;58004.16;5029862;28;20060;-69
2023/01/12 06:26:11;;;;;;;2.70;1.47;;;;;;;-142.25;100.00;58004.16;5026445;28;20052;-72
2023/01/12 06:28:38;;;;;;;15.77;2.10;;;;;;;-142.25;100.00;58004.16;5033573;28;20443;-71
2023/01/12 06:31:07;;;;;;;2.27;1.30;;;;;;;-142.25;100.00;58004.16;5034670;28;20045;-70
2023/01/12 06:33:33;;;;;;;1.10;1.00;;;;;;;-142.25;100.00;58004.16;5035913;28;20037;-72
2023/01/12 06:35:59;;;;;;;5.80;1.50;;;;;;;-142.25;100.00;58004.16;5031790;28;20033;-71
2023/01/12 06:38:27;;;;;;;3.47;1.33;;;;;;;-142.25;100.00;58004.16;5033783;28;20033;-72
2023/01/12 06:40:56;;;;;;;2.13;1.40;;;;;;;-142.25;100.00;58004.16;5034215;28;21001;-72
2023/01/12 06:43:22;;;;;;;4.20;1.10;;;;;;;-142.25;100.00;58004.16;5033809;28;20452;-72
2023/01/12 06:45:51;;;;;;;3.13;1.30;;;;;;;-142.25;100.00;58004.16;5030730;28;20065;-73
2023/01/12 06:48:19;;;;;;;1.63;1.30;;;;;;;-142.25;100.00;58004.16;5034520;28;20056;-72
2023/01/12 06:50:45;;;;;;;4.50;1.77;;;;;;;-142.25;100.00;58004.16;5034836;28;20079;-70
2023/01/12 06:53:11;;;;;;;2.23;1.10;;;;;;;-142.25;100.00;58004.16;5029703;28;20048;-72
2023/01/12 06:55:36;;;;;;;1.73;1.00;;;;;;;-142.25;100.00;58004.16;5031302;28;20483;-72
2023/01/12 06:58:03;;;;;;;2.17;1.03;;;;;;;-142.25;100.00;58004.16;5030007;28;20068;-73
2023/01/12 07:00:30;;;;;;;2.50;1.07;;;;;;;-142.25;100.00;58004.16;5030616;28;20040;-72
2023/01/12 07:02:55;;;;;;;1.20;0.80;;;;;;;-142.25;100.00;58004.16;5032121;28;20044;-71
2023/01/12 07:05:21;;;;;;;2.23;0.77;;;;;;;-142.25;100.00;58004.16;5035510;28;20049;-73
2023/01/12 07:07:47;;;;;;;1.67;0.93;;;;;;;-142.25;100.00;58004.16;5034333;28;20596;-72
2023/01/12 07:10:13;;;;;;;3.00;1.60;;;;;;;-142.25;100.00;58004.16;5034812;28;20512;-71
2023/01/12 07:12:39;;;;;;;1.00;0.63;;;;;;;-142.25;100.00;58004.16;5032088;28;20517;-70
2023/01/12 07:15:06;;;;;;;3.30;1.10;;;;;;;-142.25;100.00;58004.16;5033438;28;20114;-71
2023/01/12 07:17:32;;;;;;;2.27;1.00;;;;;;;-142.25;100.00;58004.16;5034262;28;20123;-72
2023/01/12 07:19:57;;;;;;;2.90;1.07;;;;;;;-142.25;100.00;58004.16;5032513;28;20495;-66
2023/01/12 07:22:25;;;;;;;2.13;1.23;;;;;;;-142.25;100.00;58004.16;5034884;28;20541;-70
2023/01/12 07:24:50;;;;;;;2.63;1.03;;;;;;;-142.25;100.00;58004.16;5036705;28;20399;-73
2023/01/12 07:27:16;;;;;;;2.20;0.93;;;;;;;-142.25;100.00;58004.16;5030541;28;20045;-71
2023/01/12 07:29:45;;;;;;;3.10;1.40;;;;;;;-142.25;100.00;58004.16;5031638;28;20045;-73
2023/01/12 07:32:11;;;;;;;5.33;1.50;;;;;;;-142.25;100.00;58004.16;5036762;28;20044;-71
2023/01/12 07:34:36;;;;;;;2.30;1.83;;;;;;;-142.25;100.00;58004.16;5035160;28;20049;-72
2023/01/12 07:37:02;;;;;;;4.33;1.53;;;;;;;-142.25;100.00;58004.16;5047068;28;20045;-72
2023/01/12 07:39:28;;;;;;;2.90;1.70;;;;;;;-142.25;100.00;58004.16;5044767;28;20606;-72
2023/01/12 07:44:39;;;;;;;4.10;1.30;;;;;;;-142.25;100.00;58004.16;5043237;28;20041;-70
2023/01/12 07:47:04;;;;;;;3.00;1.40;;;;;;;-142.25;100.00;58004.16;5042145;28;20380;-72
2023/01/12 07:49:30;;;;;;;7.87;2.73;;;;;;;-142.25;100.00;58004.16;5038686;28;20056;-71
2023/01/12 07:51:55;;;;;;;12.87;5.33;;;;;;;-142.25;100.00;58004.16;5040185;28;20439;-71
2023/01/12 07:54:22;;;;;;;15.17;5.10;;;;;;;-142.25;100.00;58004.16;5041221;28;20511;-71
2023/01/12 07:56:47;;;;;;;10.67;4.73;;;;;;;-142.25;100.00;58004.16;5040255;28;20575;-72
2023/01/12 07:59:13;;;;;;;9.73;4.30;;;;;;;-142.25;100.00;58004.16;5038383;28;20056;-72
2023/01/12 08:01:39;;;;;;;9.93;3.33;;;;;;;-142.25;100.00;58004.16;5042030;28;20803;-70
2023/01/12 08:04:06;;;;;;;5.87;2.50;;;;;;;-142.25;100.00;58004.16;5041253;28;20037;-71
2023/01/12 08:06:33;;;;;;;4.23;2.57;;;;;;;-142.25;100.00;58004.16;5037904;28;20042;-70
2023/01/12 08:08:58;;;;;;;7.23;2.53;;;;;;;-142.25;100.00;58004.16;5035464;28;20095;-71
2023/01/12 08:11:24;;;;;;;8.00;3.10;;;;;;;-142.25;100.00;58004.16;5043771;28;20056;-70
2023/01/12 08:13:55;;;;;;;3.30;2.37;;;;;;;-142.25;100.00;58004.16;5043025;28;20497;-66
2023/01/12 08:16:31;;;;;;;8.10;3.70;;;;;;;-142.25;100.00;58004.16;5043794;28;20053;-70
2023/01/12 08:19:05;;;;;;;12.07;6.43;;;;;;;-142.25;100.00;58004.16;5042784;28;20502;-69
2023/01/12 08:21:43;;;;;;;14.97;7.13;;;;;;;-142.25;100.00;58004.16;5041936;28;20045;-70
2023/01/12 08:24:12;;;;;;;4.40;2.93;;;;;;;-142.25;100.00;58004.16;5042117;28;20052;-70
2023/01/12 08:26:45;;;;;;;4.97;3.80;;;;;;;-142.25;100.00;58004.16;5038191;28;20472;-69
2023/01/12 08:29:20;;;;;;;5.77;2.80;;;;;;;-142.25;100.00;58004.16;5042781;28;20529;-70
2023/01/12 08:31:56;;;;;;;6.68;3.20;;;;;;;-142.25;100.00;58004.16;5039634;28;20040;-71
2023/01/12 08:34:42;;;;;;;6.50;2.53;;;;;;;-142.25;100.00;58004.16;5036989;28;20045;-71
2023/01/12 08:37:19;;;;;;;6.95;3.42;;;;;;;-142.25;100.00;58004.16;5037041;28;20052;-70
2023/01/12 08:39:51;;;;;;;7.47;3.60;;;;;;;-142.25;100.00;58004.16;5043367;28;20060;-71
2023/01/12 08:42:18;;;;;;;6.30;3.55;;;;;;;-142.25;100.00;58004.16;5042314;28;20048;-72
2023/01/12 08:44:53;;;;;;;8.65;3.95;;;;;;;-142.25;100.00;58004.16;5044073;28;20419;-72
2023/01/12 08:47:25;;;;;;;7.80;3.25;;;;;;;-142.25;100.00;58004.16;5044235;28;20048;-71
2023/01/12 08:49:51;;;;;;;12.98;4.50;;;;;;;-142.25;100.00;58004.16;5044353;28;20033;-70
2023/01/12 08:52:18;;;;;;;5.57;2.22;;;;;;;-142.25;100.00;58004.16;5038878;28;20431;-70
2023/01/12 08:54:43;;;;;;;3.92;2.50;;;;;;;-142.25;100.00;58004.16;5041557;28;20237;-70
2023/01/12 08:57:12;;;;;;;3.63;1.20;;;;;;;-142.25;100.00;58004.16;5039432;28;20585;-68
2023/01/12 08:59:37;;;;;;;3.90;1.90;;;;;;;-142.25;100.00;58004.16;5039981;28;20102;-72
2023/01/12 09:02:06;;;;;;;3.10;1.63;;;;;;;-142.25;100.00;58004.16;5038597;28;20622;-70
2023/01/12 09:04:38;;;;;;;3.35;1.88;;;;;;;-142.25;100.00;58004.16;5037895;28;20152;-71
2023/01/12 09:07:06;;;;;;;5.00;2.25;;;;;;;-142.25;100.00;58004.16;5031377;28;20041;-70
2023/01/12 09:10:05;;;;;;;6.55;2.30;;;;;;;-142.25;100.00;58004.16;5040429;28;20476;-70
2023/01/12 09:16:19;;;;;;;4.50;1.48;;;;;;;-142.25;100.00;58004.16;4997934;28;20453;-69
2023/01/12 09:18:45;;;;;;;3.30;1.27;;;;;;;-142.25;100.00;58004.16;4985308;28;20081;-68
2023/01/12 09:21:16;;;;;;;6.57;1.67;;;;;;;-142.25;100.00;58004.16;4971820;28;20104;-68
2023/01/12 09:23:43;;;;;;;5.43;1.33;;;;;;;-142.25;100.00;58004.16;4975823;28;20058;-69
2023/01/12 09:26:08;;;;;;;5.30;1.15;;;;;;;-142.25;100.00;58004.16;4985243;28;20096;-68
2023/01/12 09:28:35;;;;;;;1.95;1.13;;;;;;;-142.25;100.00;58004.16;4986638;28;20046;-69
2023/01/12 09:31:09;;;;;;;6.68;2.30;;;;;;;-142.25;100.00;58004.16;4980789;28;20051;-69
2023/01/12 09:33:46;;;;;;;6.82;2.22;;;;;;;-142.25;100.00;58004.16;4983167;28;20053;-72
2023/01/12 09:36:19;;;;;;;4.35;2.63;;;;;;;-142.25;100.00;58004.16;4981656;28;20059;-69
2023/01/12 09:38:46;;;;;;;3.60;1.48;;;;;;;-142.25;100.00;58004.16;4981915;28;20050;-69
2023/01/12 09:46:57;;;;;;;4.05;1.40;;;;;;;-142.25;100.00;58004.16;4985412;28;20196;-69
2023/01/12 09:46:59;;;;;;;4.18;1.40;;;;;;;-142.25;100.00;58004.16;4982204;28;20050;-69
2023/01/12 09:50:06;;;;;;;3.92;1.48;;;;;;;-142.25;100.00;58004.16;4961553;28;20046;-68
2023/01/12 09:53:12;;;;;;;1.95;1.17;;;;;;;-142.25;100.00;58004.16;4994824;28;20108;-68
2023/01/12 09:55:45;;;;;;;6.90;2.92;;;;;;;-142.25;100.00;58004.16;5002148;28;20477;-68
2023/01/12 09:58:33;;;;;;;5.53;1.40;;;;;;;-142.25;100.00;58004.16;5006618;28;20121;-71
2023/01/12 10:01:06;;;;;;;3.22;1.23;;;;;;;-142.25;100.00;58004.16;5000268;28;20065;-70
2023/01/12 10:03:37;;;;;;;3.78;0.95;;;;;;;-142.25;100.00;58004.16;4998171;28;20045;-69
2023/01/12 10:06:05;;;;;;;3.17;1.40;;;;;;;-142.25;100.00;58004.16;5002729;28;20057;-71
2023/01/12 10:08:59;;;;;;;3.60;1.10;;;;;;;-142.25;100.00;58004.16;4998651;28;20038;-73
2023/01/12 10:11:45;;;;;;;3.40;0.98;;;;;;;-142.25;100.00;58004.16;4997371;28;20058;-72
2023/01/12 10:14:28;;;;;;;1.42;1.00;;;;;;;-142.25;100.00;58004.16;4999153;28;20104;-71
2023/01/12 10:17:08;;;;;;;3.38;1.92;;;;;;;-142.25;100.00;58004.16;4997542;28;20617;-72
2023/01/12 10:19:56;;;;;;;4.75;1.73;;;;;;;-142.25;100.00;58004.16;5041815;28;20045;-71
2023/01/12 10:22:36;;;;;;;5.50;1.20;;;;;;;-142.25;100.00;58004.16;5037973;28;20380;-70
2023/01/12 10:25:38;;;;;;;1.50;0.98;;;;;;;-142.25;100.00;58004.16;5038511;28;20041;-71
2023/01/12 10:28:11;;;;;;;3.35;1.02;;;;;;;-142.25;100.00;58004.16;5042089;28;20048;-72
2023/01/12 10:30:39;;;;;;;3.08;1.20;;;;;;;-142.25;100.00;58004.16;5041640;28;20034;-71
2023/01/12 10:33:19;;;;;;;6.13;1.55;;;;;;;-142.25;100.00;58004.16;5037198;28;20168;-66
2023/01/12 10:35:55;;;;;;;3.50;1.58;;;;;;;-142.25;100.00;58004.16;5040312;28;20862;-67
2023/01/12 10:38:34;;;;;;;3.40;0.95;;;;;;;-142.25;100.00;58004.16;5041568;28;20045;-71
2023/01/12 10:41:09;;;;;;;5.15;1.90;;;;;;;-142.25;100.00;58004.16;5041425;28;20526;-71
2023/01/12 10:43:36;;;;;;;1.48;1.05;;;;;;;-142.25;100.00;58004.16;5039174;28;20122;-69
2023/01/12 10:46:03;;;;;;;4.18;1.05;;;;;;;-142.25;100.00;58004.16;5042760;28;20449;-69
2023/01/12 10:48:30;;;;;;;3.15;1.58;;;;;;;-142.25;100.00;58004.16;5041610;28;20691;-69
2023/01/12 10:50:58;;;;;;;5.38;2.00;;;;;;;-142.25;100.00;58004.16;5040659;28;20089;-70
2023/01/12 10:53:34;;;;;;;1.42;0.90;;;;;;;-142.25;100.00;58004.16;5035777;28;20044;-68
2023/01/12 10:56:09;;;;;;;6.90;1.90;;;;;;;-142.25;100.00;58004.16;5037439;28;20792;-69
2023/01/12 10:58:35;;;;;;;1.90;1.25;;;;;;;-142.25;100.00;58004.16;5041842;28;20056;-69
2023/01/12 11:01:01;;;;;;;1.33;1.05;;;;;;;-142.25;100.00;58004.16;5041125;28;20057;-69
2023/01/12 11:03:33;;;;;;;2.45;1.38;;;;;;;-142.25;100.00;58004.16;5041495;28;20040;-71
2023/01/12 11:06:24;;;;;;;1.13;0.90;;;;;;;-142.25;100.00;58004.16;5045605;28;20032;-71
2023/01/12 11:08:50;;;;;;;4.72;1.10;;;;;;;-142.25;100.00;58004.16;5038781;28;20037;-69
2023/01/12 11:11:29;;;;;;;2.45;1.20;;;;;;;-142.25;100.00;58004.16;5042134;28;20139;-67
2023/01/12 11:13:58;;;;;;;4.60;1.20;;;;;;;-142.25;100.00;58004.16;5028056;28;20045;-70
2023/01/12 11:16:30;;;;;;;1.88;1.15;;;;;;;-142.25;100.00;58004.16;5040141;28;20039;-71
2023/01/12 11:19:18;;;;;;;1.23;1.00;;;;;;;-142.25;100.00;58004.16;5040060;28;20059;-71
2023/01/12 11:21:56;;;;;;;0.65;0.65;;;;;;;-142.25;100.00;58004.16;5038013;28;20321;-69
2023/01/12 11:24:43;;;;;;;1.58;1.23;;;;;;;-142.25;100.00;58004.16;5041149;28;20067;-70
2023/01/12 11:27:29;;;;;;;2.60;1.08;;;;;;;-142.25;100.00;58004.16;5039513;28;20094;-70
2023/01/12 11:29:59;;;;;;;1.40;0.88;;;;;;;-142.25;100.00;58004.16;5038637;28;20079;-70
2023/01/12 11:32:31;;;;;;;1.92;1.20;;;;;;;-142.25;100.00;58004.16;5040517;28;20065;-70
2023/01/12 11:35:04;;;;;;;1.13;1.02;;;;;;;-142.25;100.00;58004.16;5042264;28;20045;-70
2023/01/12 11:37:34;;;;;;;3.40;1.50;;;;;;;-142.25;100.00;58004.16;5038823;28;20323;-70
2023/01/12 11:40:12;;;;;;;3.55;1.40;;;;;;;-142.25;100.00;58004.16;5036652;28;20365;-69
2023/01/12 11:45:45;;;;;;;1.30;1.00;;;;;;;-142.25;100.00;58004.16;5044012;28;20055;-71
2023/01/12 11:48:29;;;;;;;1.60;0.90;;;;;;;-142.25;100.00;58004.16;5046381;28;20037;-70
2023/01/12 11:50:58;;;;;;;1.93;1.00;;;;;;;-142.25;100.00;58004.16;5046744;28;20040;-71
2023/01/12 11:53:24;;;;;;;1.95;1.15;;;;;;;-142.25;100.00;58004.16;5047669;28;20378;-71
2023/01/12 11:56:08;;;;;;;3.40;1.63;;;;;;;-142.25;100.00;58004.16;5049546;28;20524;-69
2023/01/12 11:58:46;;;;;;;1.92;1.38;;;;;;;-142.25;100.00;58004.16;5049143;28;20254;-69